sensor_id;sensor_type;location;lat;lon;timestamp;P1;durP1;ratioP1;P2;durP2;ratioP2
61017;SDS011;48171;51.550;5.434;2022-10-16T00:01:06;13.88;;;6.18;;
61017;SDS011;48171;51.550;5.434;2022-10-16T00:03:33;9.25;;;5.32;;
61017;SDS011;48171;51.550;5.434;2022-10-16T00:05:59;10.57;;;5.68;;
61017;SDS011;48171;51.550;5.434;2022-10-16T00:08:25;12.45;;;5.95;;
61017;SDS011;48171;51.550;5.434;2022-10-16T00:10:50;11.45;;;5.43;;
61017;SDS011;48171;51.550;5.434;2022-10-16T00:13:16;11.45;;;5.75;;
61017;SDS011;48171;51.550;5.434;2022-10-16T00:15:42;10.98;;;5.80;;
61017;SDS011;48171;51.550;5.434;2022-10-16T00:18:09;9.70;;;5.45;;
61017;SDS011;48171;51.550;5.434;2022-10-16T00:20:35;13.13;;;5.38;;
61017;SDS011;48171;51.550;5.434;2022-10-16T00:23:01;9.45;;;5.40;;
61017;SDS011;48171;51.550;5.434;2022-10-16T00:25:28;10.20;;;5.32;;
61017;SDS011;48171;51.550;5.434;2022-10-16T00:27:53;13.48;;;5.72;;
61017;SDS011;48171;51.550;5.434;2022-10-16T00:30:19;8.88;;;4.80;;
61017;SDS011;48171;51.550;5.434;2022-10-16T00:32:44;12.93;;;5.43;;
61017;SDS011;48171;51.550;5.434;2022-10-16T00:35:09;10.73;;;5.60;;
61017;SDS011;48171;51.550;5.434;2022-10-16T00:37:34;10.75;;;5.47;;
61017;SDS011;48171;51.550;5.434;2022-10-16T00:40:00;11.00;;;5.75;;
61017;SDS011;48171;51.550;5.434;2022-10-16T00:42:25;9.57;;;5.22;;
61017;SDS011;48171;51.550;5.434;2022-10-16T00:44:52;11.35;;;4.90;;
61017;SDS011;48171;51.550;5.434;2022-10-16T00:50:07;9.75;;;5.07;;
61017;SDS011;48171;51.550;5.434;2022-10-16T00:52:34;11.50;;;4.90;;
61017;SDS011;48171;51.550;5.434;2022-10-16T00:55:01;9.23;;;4.90;;
61017;SDS011;48171;51.550;5.434;2022-10-16T00:57:28;8.23;;;4.50;;
61017;SDS011;48171;51.550;5.434;2022-10-16T00:59:54;7.88;;;4.70;;
61017;SDS011;48171;51.550;5.434;2022-10-16T01:02:19;9.80;;;4.82;;
61017;SDS011;48171;51.550;5.434;2022-10-16T01:04:46;10.15;;;4.57;;
61017;SDS011;48171;51.550;5.434;2022-10-16T01:07:27;11.32;;;5.40;;
61017;SDS011;48171;51.550;5.434;2022-10-16T01:15:36;8.30;;;4.18;;
61017;SDS011;48171;51.550;5.434;2022-10-16T01:18:17;8.32;;;4.70;;
61017;SDS011;48171;51.550;5.434;2022-10-16T01:20:54;9.20;;;4.40;;
61017;SDS011;48171;51.550;5.434;2022-10-16T01:23:51;9.18;;;4.28;;
61017;SDS011;48171;51.550;5.434;2022-10-16T01:27:10;8.05;;;4.50;;
61017;SDS011;48171;51.550;5.434;2022-10-16T01:29:45;11.90;;;4.57;;
61017;SDS011;48171;51.550;5.434;2022-10-16T01:34:52;9.48;;;4.38;;
61017;SDS011;48171;51.550;5.434;2022-10-16T01:40:17;9.90;;;4.82;;
61017;SDS011;48171;51.550;5.434;2022-10-16T01:42:49;10.52;;;4.97;;
61017;SDS011;48171;51.550;5.434;2022-10-16T01:45:17;9.27;;;4.25;;
61017;SDS011;48171;51.550;5.434;2022-10-16T01:47:45;9.88;;;4.53;;
61017;SDS011;48171;51.550;5.434;2022-10-16T01:50:13;10.95;;;4.65;;
61017;SDS011;48171;51.550;5.434;2022-10-16T01:52:42;9.98;;;4.38;;
61017;SDS011;48171;51.550;5.434;2022-10-16T01:55:10;10.38;;;4.63;;
61017;SDS011;48171;51.550;5.434;2022-10-16T01:57:39;8.20;;;4.20;;
61017;SDS011;48171;51.550;5.434;2022-10-16T02:00:10;8.57;;;3.92;;
61017;SDS011;48171;51.550;5.434;2022-10-16T02:02:39;8.95;;;4.40;;
61017;SDS011;48171;51.550;5.434;2022-10-16T02:07:46;14.70;;;4.40;;
61017;SDS011;48171;51.550;5.434;2022-10-16T02:10:13;11.07;;;4.10;;
61017;SDS011;48171;51.550;5.434;2022-10-16T02:12:39;7.80;;;4.13;;
61017;SDS011;48171;51.550;5.434;2022-10-16T02:15:09;10.82;;;3.95;;
61017;SDS011;48171;51.550;5.434;2022-10-16T02:17:34;8.55;;;3.88;;
61017;SDS011;48171;51.550;5.434;2022-10-16T02:20:00;8.18;;;4.13;;
61017;SDS011;48171;51.550;5.434;2022-10-16T02:22:27;7.00;;;3.67;;
61017;SDS011;48171;51.550;5.434;2022-10-16T02:24:59;9.82;;;3.88;;
61017;SDS011;48171;51.550;5.434;2022-10-16T02:27:51;7.18;;;4.15;;
61017;SDS011;48171;51.550;5.434;2022-10-16T02:33:07;11.35;;;3.65;;
61017;SDS011;48171;51.550;5.434;2022-10-16T02:35:34;10.20;;;3.40;;
61017;SDS011;48171;51.550;5.434;2022-10-16T02:38:00;7.15;;;3.25;;
61017;SDS011;48171;51.550;5.434;2022-10-16T02:40:26;7.68;;;3.45;;
61017;SDS011;48171;51.550;5.434;2022-10-16T02:42:53;8.90;;;3.25;;
61017;SDS011;48171;51.550;5.434;2022-10-16T02:45:20;8.90;;;3.47;;
61017;SDS011;48171;51.550;5.434;2022-10-16T02:47:45;9.52;;;3.70;;
61017;SDS011;48171;51.550;5.434;2022-10-16T02:50:11;8.02;;;3.22;;
61017;SDS011;48171;51.550;5.434;2022-10-16T02:52:36;7.50;;;3.08;;
61017;SDS011;48171;51.550;5.434;2022-10-16T02:55:01;9.65;;;3.55;;
61017;SDS011;48171;51.550;5.434;2022-10-16T02:57:27;7.50;;;3.05;;
61017;SDS011;48171;51.550;5.434;2022-10-16T02:59:52;5.40;;;3.33;;
61017;SDS011;48171;51.550;5.434;2022-10-16T03:02:18;9.10;;;3.60;;
61017;SDS011;48171;51.550;5.434;2022-10-16T03:04:43;7.20;;;3.47;;
61017;SDS011;48171;51.550;5.434;2022-10-16T03:07:08;7.40;;;3.33;;
61017;SDS011;48171;51.550;5.434;2022-10-16T03:09:34;7.85;;;3.33;;
61017;SDS011;48171;51.550;5.434;2022-10-16T03:11:59;6.72;;;3.53;;
61017;SDS011;48171;51.550;5.434;2022-10-16T03:14:24;8.65;;;3.70;;
61017;SDS011;48171;51.550;5.434;2022-10-16T03:16:50;7.40;;;3.35;;
61017;SDS011;48171;51.550;5.434;2022-10-16T03:19:18;5.53;;;2.83;;
61017;SDS011;48171;51.550;5.434;2022-10-16T03:21:43;6.72;;;3.00;;
61017;SDS011;48171;51.550;5.434;2022-10-16T03:24:09;5.82;;;2.88;;
61017;SDS011;48171;51.550;5.434;2022-10-16T03:26:34;7.38;;;3.08;;
61017;SDS011;48171;51.550;5.434;2022-10-16T03:29:00;5.85;;;3.08;;
61017;SDS011;48171;51.550;5.434;2022-10-16T03:31:27;5.07;;;2.78;;
61017;SDS011;48171;51.550;5.434;2022-10-16T03:33:52;10.48;;;3.10;;
61017;SDS011;48171;51.550;5.434;2022-10-16T03:36:18;5.63;;;3.03;;
61017;SDS011;48171;51.550;5.434;2022-10-16T03:38:43;6.10;;;3.15;;
61017;SDS011;48171;51.550;5.434;2022-10-16T03:41:08;7.07;;;2.90;;
61017;SDS011;48171;51.550;5.434;2022-10-16T03:43:33;6.68;;;2.80;;
61017;SDS011;48171;51.550;5.434;2022-10-16T03:45:59;7.68;;;3.20;;
61017;SDS011;48171;51.550;5.434;2022-10-16T03:48:24;5.45;;;2.83;;
61017;SDS011;48171;51.550;5.434;2022-10-16T03:50:49;5.18;;;3.03;;
61017;SDS011;48171;51.550;5.434;2022-10-16T03:53:16;7.95;;;3.08;;
61017;SDS011;48171;51.550;5.434;2022-10-16T03:55:42;5.15;;;2.83;;
61017;SDS011;48171;51.550;5.434;2022-10-16T03:58:08;6.43;;;3.33;;
61017;SDS011;48171;51.550;5.434;2022-10-16T04:00:33;4.85;;;2.72;;
61017;SDS011;48171;51.550;5.434;2022-10-16T04:02:59;8.40;;;2.80;;
61017;SDS011;48171;51.550;5.434;2022-10-16T04:05:24;8.10;;;2.70;;
61017;SDS011;48171;51.550;5.434;2022-10-16T04:07:50;8.55;;;2.90;;
61017;SDS011;48171;51.550;5.434;2022-10-16T04:10:15;9.40;;;3.08;;
61017;SDS011;48171;51.550;5.434;2022-10-16T04:12:40;6.45;;;2.97;;
61017;SDS011;48171;51.550;5.434;2022-10-16T04:15:06;6.20;;;2.92;;
61017;SDS011;48171;51.550;5.434;2022-10-16T04:17:31;5.68;;;3.33;;
61017;SDS011;48171;51.550;5.434;2022-10-16T04:19:57;5.72;;;3.10;;
61017;SDS011;48171;51.550;5.434;2022-10-16T04:22:22;7.10;;;3.15;;
61017;SDS011;48171;51.550;5.434;2022-10-16T04:24:47;6.05;;;3.25;;
61017;SDS011;48171;51.550;5.434;2022-10-16T04:27:12;5.55;;;3.20;;
61017;SDS011;48171;51.550;5.434;2022-10-16T04:29:38;6.78;;;3.20;;
61017;SDS011;48171;51.550;5.434;2022-10-16T04:32:03;7.32;;;3.47;;
61017;SDS011;48171;51.550;5.434;2022-10-16T04:34:28;7.80;;;3.78;;
61017;SDS011;48171;51.550;5.434;2022-10-16T04:36:54;10.27;;;3.67;;
61017;SDS011;48171;51.550;5.434;2022-10-16T04:39:19;8.70;;;3.92;;
61017;SDS011;48171;51.550;5.434;2022-10-16T04:41:44;8.48;;;4.07;;
61017;SDS011;48171;51.550;5.434;2022-10-16T04:44:10;9.40;;;3.65;;
61017;SDS011;48171;51.550;5.434;2022-10-16T04:46:35;7.53;;;3.60;;
61017;SDS011;48171;51.550;5.434;2022-10-16T04:49:00;5.10;;;3.30;;
61017;SDS011;48171;51.550;5.434;2022-10-16T04:51:25;7.18;;;3.65;;
61017;SDS011;48171;51.550;5.434;2022-10-16T04:53:52;5.97;;;3.30;;
61017;SDS011;48171;51.550;5.434;2022-10-16T04:56:18;6.72;;;3.08;;
61017;SDS011;48171;51.550;5.434;2022-10-16T04:58:43;8.82;;;3.58;;
61017;SDS011;48171;51.550;5.434;2022-10-16T05:01:09;8.15;;;3.85;;
61017;SDS011;48171;51.550;5.434;2022-10-16T05:03:34;7.13;;;3.80;;
61017;SDS011;48171;51.550;5.434;2022-10-16T05:05:59;6.85;;;3.75;;
61017;SDS011;48171;51.550;5.434;2022-10-16T05:08:24;8.75;;;3.55;;
61017;SDS011;48171;51.550;5.434;2022-10-16T05:10:50;9.50;;;3.83;;
61017;SDS011;48171;51.550;5.434;2022-10-16T05:13:15;7.43;;;3.65;;
61017;SDS011;48171;51.550;5.434;2022-10-16T05:15:40;7.97;;;3.40;;
61017;SDS011;48171;51.550;5.434;2022-10-16T05:18:06;8.07;;;3.30;;
61017;SDS011;48171;51.550;5.434;2022-10-16T05:20:31;8.48;;;4.40;;
61017;SDS011;48171;51.550;5.434;2022-10-16T05:22:56;5.82;;;3.03;;
61017;SDS011;48171;51.550;5.434;2022-10-16T05:25:22;11.60;;;4.00;;
61017;SDS011;48171;51.550;5.434;2022-10-16T05:27:47;8.02;;;3.50;;
61017;SDS011;48171;51.550;5.434;2022-10-16T05:30:13;6.93;;;3.47;;
61017;SDS011;48171;51.550;5.434;2022-10-16T05:32:39;7.70;;;3.60;;
61017;SDS011;48171;51.550;5.434;2022-10-16T05:35:04;7.10;;;3.53;;
61017;SDS011;48171;51.550;5.434;2022-10-16T05:37:30;7.50;;;3.50;;
61017;SDS011;48171;51.550;5.434;2022-10-16T05:39:55;9.38;;;3.80;;
61017;SDS011;48171;51.550;5.434;2022-10-16T05:42:20;7.80;;;3.30;;
61017;SDS011;48171;51.550;5.434;2022-10-16T05:44:46;11.25;;;3.60;;
61017;SDS011;48171;51.550;5.434;2022-10-16T05:47:12;9.15;;;3.40;;
61017;SDS011;48171;51.550;5.434;2022-10-16T05:49:39;6.88;;;3.33;;
61017;SDS011;48171;51.550;5.434;2022-10-16T05:52:04;13.60;;;3.88;;
61017;SDS011;48171;51.550;5.434;2022-10-16T05:54:29;7.82;;;3.30;;
61017;SDS011;48171;51.550;5.434;2022-10-16T05:56:54;6.53;;;3.15;;
61017;SDS011;48171;51.550;5.434;2022-10-16T05:59:20;6.18;;;3.20;;
61017;SDS011;48171;51.550;5.434;2022-10-16T06:01:45;6.43;;;2.80;;
61017;SDS011;48171;51.550;5.434;2022-10-16T06:04:10;6.28;;;3.45;;
61017;SDS011;48171;51.550;5.434;2022-10-16T06:06:36;7.55;;;3.30;;
61017;SDS011;48171;51.550;5.434;2022-10-16T06:09:02;9.60;;;3.53;;
61017;SDS011;48171;51.550;5.434;2022-10-16T06:11:28;5.47;;;2.97;;
61017;SDS011;48171;51.550;5.434;2022-10-16T06:13:56;8.40;;;3.47;;
61017;SDS011;48171;51.550;5.434;2022-10-16T06:16:23;7.03;;;3.03;;
61017;SDS011;48171;51.550;5.434;2022-10-16T06:18:50;6.55;;;2.78;;
61017;SDS011;48171;51.550;5.434;2022-10-16T06:21:17;8.82;;;3.28;;
61017;SDS011;48171;51.550;5.434;2022-10-16T06:23:44;10.90;;;3.67;;
61017;SDS011;48171;51.550;5.434;2022-10-16T06:26:13;5.80;;;2.92;;
61017;SDS011;48171;51.550;5.434;2022-10-16T06:28:40;8.45;;;3.60;;
61017;SDS011;48171;51.550;5.434;2022-10-16T06:31:06;9.27;;;3.65;;
61017;SDS011;48171;51.550;5.434;2022-10-16T06:33:33;6.22;;;3.15;;
61017;SDS011;48171;51.550;5.434;2022-10-16T06:36:03;12.63;;;3.58;;
61017;SDS011;48171;51.550;5.434;2022-10-16T06:38:30;7.55;;;3.25;;
61017;SDS011;48171;51.550;5.434;2022-10-16T06:40:56;8.15;;;3.78;;
61017;SDS011;48171;51.550;5.434;2022-10-16T06:43:22;6.30;;;3.15;;
61017;SDS011;48171;51.550;5.434;2022-10-16T06:45:54;7.55;;;3.63;;
61017;SDS011;48171;51.550;5.434;2022-10-16T06:48:20;8.73;;;3.80;;
61017;SDS011;48171;51.550;5.434;2022-10-16T06:53:25;9.27;;;3.30;;
61017;SDS011;48171;51.550;5.434;2022-10-16T06:55:53;10.85;;;3.75;;
61017;SDS011;48171;51.550;5.434;2022-10-16T06:58:18;9.35;;;3.22;;
61017;SDS011;48171;51.550;5.434;2022-10-16T07:00:44;7.88;;;3.50;;
61017;SDS011;48171;51.550;5.434;2022-10-16T07:03:09;6.57;;;3.55;;
61017;SDS011;48171;51.550;5.434;2022-10-16T07:05:41;8.18;;;3.53;;
61017;SDS011;48171;51.550;5.434;2022-10-16T07:08:07;10.95;;;3.35;;
61017;SDS011;48171;51.550;5.434;2022-10-16T07:10:34;9.02;;;3.65;;
61017;SDS011;48171;51.550;5.434;2022-10-16T07:13:00;7.55;;;3.47;;
61017;SDS011;48171;51.550;5.434;2022-10-16T07:15:25;9.02;;;3.08;;
61017;SDS011;48171;51.550;5.434;2022-10-16T07:17:51;8.80;;;3.88;;
61017;SDS011;48171;51.550;5.434;2022-10-16T07:20:17;6.40;;;3.13;;
61017;SDS011;48171;51.550;5.434;2022-10-16T07:22:42;7.10;;;3.33;;
61017;SDS011;48171;51.550;5.434;2022-10-16T07:25:08;5.90;;;3.40;;
61017;SDS011;48171;51.550;5.434;2022-10-16T07:27:33;8.43;;;3.40;;
61017;SDS011;48171;51.550;5.434;2022-10-16T07:29:59;7.90;;;3.40;;
61017;SDS011;48171;51.550;5.434;2022-10-16T07:32:24;8.70;;;3.33;;
61017;SDS011;48171;51.550;5.434;2022-10-16T07:34:50;11.38;;;3.53;;
61017;SDS011;48171;51.550;5.434;2022-10-16T07:37:16;8.80;;;3.40;;
61017;SDS011;48171;51.550;5.434;2022-10-16T07:39:41;10.98;;;3.80;;
61017;SDS011;48171;51.550;5.434;2022-10-16T07:42:07;7.30;;;3.60;;
61017;SDS011;48171;51.550;5.434;2022-10-16T07:44:32;9.57;;;3.70;;
61017;SDS011;48171;51.550;5.434;2022-10-16T07:46:58;9.43;;;3.50;;
61017;SDS011;48171;51.550;5.434;2022-10-16T07:49:23;9.77;;;3.58;;
61017;SDS011;48171;51.550;5.434;2022-10-16T07:51:48;8.48;;;3.30;;
61017;SDS011;48171;51.550;5.434;2022-10-16T07:54:13;9.80;;;3.85;;
61017;SDS011;48171;51.550;5.434;2022-10-16T07:56:39;9.18;;;4.00;;
61017;SDS011;48171;51.550;5.434;2022-10-16T07:59:04;9.60;;;3.65;;
61017;SDS011;48171;51.550;5.434;2022-10-16T08:01:29;10.48;;;3.63;;
61017;SDS011;48171;51.550;5.434;2022-10-16T08:03:54;9.25;;;3.13;;
61017;SDS011;48171;51.550;5.434;2022-10-16T08:06:20;8.90;;;3.72;;
61017;SDS011;48171;51.550;5.434;2022-10-16T08:08:46;8.85;;;3.47;;
61017;SDS011;48171;51.550;5.434;2022-10-16T08:11:12;8.27;;;4.10;;
61017;SDS011;48171;51.550;5.434;2022-10-16T08:13:39;10.32;;;3.65;;
61017;SDS011;48171;51.550;5.434;2022-10-16T08:16:04;11.57;;;3.50;;
61017;SDS011;48171;51.550;5.434;2022-10-16T08:18:36;12.27;;;3.80;;
61017;SDS011;48171;51.550;5.434;2022-10-16T08:21:03;9.50;;;3.53;;
61017;SDS011;48171;51.550;5.434;2022-10-16T08:23:29;8.13;;;3.60;;
61017;SDS011;48171;51.550;5.434;2022-10-16T08:25:55;7.68;;;3.30;;
61017;SDS011;48171;51.550;5.434;2022-10-16T08:28:27;10.02;;;3.42;;
61017;SDS011;48171;51.550;5.434;2022-10-16T08:30:52;9.48;;;3.78;;
61017;SDS011;48171;51.550;5.434;2022-10-16T08:33:17;8.73;;;3.70;;
61017;SDS011;48171;51.550;5.434;2022-10-16T08:35:49;6.97;;;3.45;;
61017;SDS011;48171;51.550;5.434;2022-10-16T08:38:18;10.27;;;3.72;;
61017;SDS011;48171;51.550;5.434;2022-10-16T08:40:44;9.07;;;3.80;;
61017;SDS011;48171;51.550;5.434;2022-10-16T08:48:47;9.27;;;3.67;;
61017;SDS011;48171;51.550;5.434;2022-10-16T08:51:34;12.98;;;3.40;;
61017;SDS011;48171;51.550;5.434;2022-10-16T08:54:05;8.75;;;3.58;;
61017;SDS011;48171;51.550;5.434;2022-10-16T08:56:37;8.05;;;3.45;;
61017;SDS011;48171;51.550;5.434;2022-10-16T08:59:03;7.32;;;3.53;;
61017;SDS011;48171;51.550;5.434;2022-10-16T09:01:41;7.47;;;3.55;;
61017;SDS011;48171;51.550;5.434;2022-10-16T09:07:01;7.82;;;3.15;;
61017;SDS011;48171;51.550;5.434;2022-10-16T09:12:17;8.00;;;3.70;;
61017;SDS011;48171;51.550;5.434;2022-10-16T09:20:12;14.80;;;3.47;;
61017;SDS011;48171;51.550;5.434;2022-10-16T09:22:38;7.80;;;3.03;;
61017;SDS011;48171;51.550;5.434;2022-10-16T09:25:14;8.45;;;3.03;;
61017;SDS011;48171;51.550;5.434;2022-10-16T09:27:42;9.98;;;2.70;;
61017;SDS011;48171;51.550;5.434;2022-10-16T09:30:11;6.10;;;2.75;;
61017;SDS011;48171;51.550;5.434;2022-10-16T09:32:38;7.78;;;2.53;;
61017;SDS011;48171;51.550;5.434;2022-10-16T09:35:09;11.07;;;2.65;;
61017;SDS011;48171;51.550;5.434;2022-10-16T09:37:38;9.18;;;2.75;;
61017;SDS011;48171;51.550;5.434;2022-10-16T09:40:07;8.27;;;2.65;;
61017;SDS011;48171;51.550;5.434;2022-10-16T09:42:37;8.55;;;2.90;;
61017;SDS011;48171;51.550;5.434;2022-10-16T09:45:02;9.90;;;3.42;;
61017;SDS011;48171;51.550;5.434;2022-10-16T09:47:29;11.75;;;3.33;;
61017;SDS011;48171;51.550;5.434;2022-10-16T09:49:57;8.68;;;3.13;;
61017;SDS011;48171;51.550;5.434;2022-10-16T09:52:26;15.77;;;3.47;;
61017;SDS011;48171;51.550;5.434;2022-10-16T09:54:56;12.85;;;3.38;;
61017;SDS011;48171;51.550;5.434;2022-10-16T09:57:22;7.22;;;2.95;;
61017;SDS011;48171;51.550;5.434;2022-10-16T09:59:51;14.85;;;3.38;;
61017;SDS011;48171;51.550;5.434;2022-10-16T10:02:18;18.02;;;5.45;;
61017;SDS011;48171;51.550;5.434;2022-10-16T10:04:49;10.02;;;2.67;;
61017;SDS011;48171;51.550;5.434;2022-10-16T10:07:21;6.20;;;2.75;;
61017;SDS011;48171;51.550;5.434;2022-10-16T10:09:50;12.98;;;3.08;;
61017;SDS011;48171;51.550;5.434;2022-10-16T10:12:17;9.45;;;2.90;;
61017;SDS011;48171;51.550;5.434;2022-10-16T10:14:55;10.55;;;3.35;;
61017;SDS011;48171;51.550;5.434;2022-10-16T10:17:26;10.43;;;3.10;;
61017;SDS011;48171;51.550;5.434;2022-10-16T10:19:53;15.88;;;3.35;;
61017;SDS011;48171;51.550;5.434;2022-10-16T10:22:30;13.63;;;3.13;;
61017;SDS011;48171;51.550;5.434;2022-10-16T10:25:01;13.32;;;3.15;;
61017;SDS011;48171;51.550;5.434;2022-10-16T10:30:36;12.80;;;3.15;;
61017;SDS011;48171;51.550;5.434;2022-10-16T10:35:56;14.32;;;2.85;;
61017;SDS011;48171;51.550;5.434;2022-10-16T10:44:00;11.32;;;3.20;;
61017;SDS011;48171;51.550;5.434;2022-10-16T10:46:56;9.15;;;2.83;;
61017;SDS011;48171;51.550;5.434;2022-10-16T10:52:11;11.60;;;2.90;;
61017;SDS011;48171;51.550;5.434;2022-10-16T11:00:17;9.07;;;3.17;;
61017;SDS011;48171;51.550;5.434;2022-10-16T11:02:59;13.77;;;3.13;;
61017;SDS011;48171;51.550;5.434;2022-10-16T11:05:42;14.05;;;4.47;;
61017;SDS011;48171;51.550;5.434;2022-10-16T11:10:53;15.02;;;3.63;;
61017;SDS011;48171;51.550;5.434;2022-10-16T11:13:26;13.68;;;3.25;;
61017;SDS011;48171;51.550;5.434;2022-10-16T11:15:59;17.80;;;3.35;;
61017;SDS011;48171;51.550;5.434;2022-10-16T11:18:33;13.00;;;3.35;;
61017;SDS011;48171;51.550;5.434;2022-10-16T11:21:17;16.20;;;3.05;;
61017;SDS011;48171;51.550;5.434;2022-10-16T11:23:51;12.60;;;3.15;;
61017;SDS011;48171;51.550;5.434;2022-10-16T11:26:25;10.63;;;2.58;;
61017;SDS011;48171;51.550;5.434;2022-10-16T11:34:06;14.40;;;3.70;;
61017;SDS011;48171;51.550;5.434;2022-10-16T11:36:50;13.65;;;3.17;;
61017;SDS011;48171;51.550;5.434;2022-10-16T11:39:33;10.93;;;3.47;;
61017;SDS011;48171;51.550;5.434;2022-10-16T11:42:04;12.75;;;3.03;;
61017;SDS011;48171;51.550;5.434;2022-10-16T11:44:50;12.32;;;3.13;;
61017;SDS011;48171;51.550;5.434;2022-10-16T11:52:55;11.10;;;2.67;;
61017;SDS011;48171;51.550;5.434;2022-10-16T11:55:35;9.90;;;2.88;;
61017;SDS011;48171;51.550;5.434;2022-10-16T11:58:20;11.32;;;2.40;;
61017;SDS011;48171;51.550;5.434;2022-10-16T12:01:13;15.38;;;3.42;;
61017;SDS011;48171;51.550;5.434;2022-10-16T12:06:30;9.52;;;2.50;;
61017;SDS011;48171;51.550;5.434;2022-10-16T12:09:02;8.20;;;2.70;;
61017;SDS011;48171;51.550;5.434;2022-10-16T12:16:58;7.80;;;3.15;;
61017;SDS011;48171;51.550;5.434;2022-10-16T12:19:26;13.15;;;3.00;;
61017;SDS011;48171;51.550;5.434;2022-10-16T12:21:57;10.32;;;2.92;;
61017;SDS011;48171;51.550;5.434;2022-10-16T12:27:04;8.43;;;2.67;;
61017;SDS011;48171;51.550;5.434;2022-10-16T12:29:36;9.52;;;3.03;;
61017;SDS011;48171;51.550;5.434;2022-10-16T12:32:21;10.93;;;3.22;;
61017;SDS011;48171;51.550;5.434;2022-10-16T12:34:48;12.35;;;3.30;;
61017;SDS011;48171;51.550;5.434;2022-10-16T12:37:24;10.30;;;3.30;;
61017;SDS011;48171;51.550;5.434;2022-10-16T12:39:55;8.20;;;2.97;;
61017;SDS011;48171;51.550;5.434;2022-10-16T12:44:50;10.75;;;3.00;;
61017;SDS011;48171;51.550;5.434;2022-10-16T12:47:35;10.85;;;3.58;;
61017;SDS011;48171;51.550;5.434;2022-10-16T12:53:03;7.13;;;3.10;;
61017;SDS011;48171;51.550;5.434;2022-10-16T12:55:49;7.40;;;2.72;;
61017;SDS011;48171;51.550;5.434;2022-10-16T13:09:31;12.98;;;2.22;;
61017;SDS011;48171;51.550;5.434;2022-10-16T13:18:13;13.25;;;2.30;;
61017;SDS011;48171;51.550;5.434;2022-10-16T13:24:02;12.05;;;2.58;;
61017;SDS011;48171;51.550;5.434;2022-10-16T13:27:00;4.80;;;2.03;;
61017;SDS011;48171;51.550;5.434;2022-10-16T13:29:35;7.95;;;2.10;;
61017;SDS011;48171;51.550;5.434;2022-10-16T13:32:01;10.00;;;2.50;;
61017;SDS011;48171;51.550;5.434;2022-10-16T13:34:41;8.77;;;2.40;;
61017;SDS011;48171;51.550;5.434;2022-10-16T13:37:16;8.07;;;2.30;;
61017;SDS011;48171;51.550;5.434;2022-10-16T13:39:43;9.13;;;2.03;;
61017;SDS011;48171;51.550;5.434;2022-10-16T13:42:17;7.75;;;2.20;;
61017;SDS011;48171;51.550;5.434;2022-10-16T13:44:49;7.38;;;2.10;;
61017;SDS011;48171;51.550;5.434;2022-10-16T13:47:20;11.25;;;2.20;;
61017;SDS011;48171;51.550;5.434;2022-10-16T13:49:58;11.05;;;2.33;;
61017;SDS011;48171;51.550;5.434;2022-10-16T13:52:44;8.05;;;2.33;;
61017;SDS011;48171;51.550;5.434;2022-10-16T13:55:10;8.57;;;2.20;;
61017;SDS011;48171;51.550;5.434;2022-10-16T13:57:37;9.27;;;2.00;;
61017;SDS011;48171;51.550;5.434;2022-10-16T14:00:03;9.80;;;2.08;;
61017;SDS011;48171;51.550;5.434;2022-10-16T14:02:41;10.05;;;1.85;;
61017;SDS011;48171;51.550;5.434;2022-10-16T14:05:08;10.77;;;1.95;;
61017;SDS011;48171;51.550;5.434;2022-10-16T14:07:35;8.20;;;2.45;;
61017;SDS011;48171;51.550;5.434;2022-10-16T14:10:03;8.65;;;1.95;;
61017;SDS011;48171;51.550;5.434;2022-10-16T14:14:57;11.95;;;2.33;;
61017;SDS011;48171;51.550;5.434;2022-10-16T14:17:25;8.93;;;1.90;;
61017;SDS011;48171;51.550;5.434;2022-10-16T14:19:57;8.73;;;2.00;;
61017;SDS011;48171;51.550;5.434;2022-10-16T14:22:29;8.32;;;1.80;;
61017;SDS011;48171;51.550;5.434;2022-10-16T14:25:00;9.88;;;2.13;;
61017;SDS011;48171;51.550;5.434;2022-10-16T14:27:32;6.15;;;1.90;;
61017;SDS011;48171;51.550;5.434;2022-10-16T14:30:33;5.10;;;1.80;;
61017;SDS011;48171;51.550;5.434;2022-10-16T14:32:56;7.57;;;2.00;;
61017;SDS011;48171;51.550;5.434;2022-10-16T14:35:27;6.85;;;1.88;;
61017;SDS011;48171;51.550;5.434;2022-10-16T14:38:01;7.47;;;2.13;;
61017;SDS011;48171;51.550;5.434;2022-10-16T14:40:32;8.23;;;2.10;;
61017;SDS011;48171;51.550;5.434;2022-10-16T14:43:03;5.95;;;2.25;;
61017;SDS011;48171;51.550;5.434;2022-10-16T14:45:30;7.35;;;2.10;;
61017;SDS011;48171;51.550;5.434;2022-10-16T14:48:00;4.38;;;1.60;;
61017;SDS011;48171;51.550;5.434;2022-10-16T14:50:29;11.23;;;2.13;;
61017;SDS011;48171;51.550;5.434;2022-10-16T14:52:55;12.50;;;2.35;;
61017;SDS011;48171;51.550;5.434;2022-10-16T14:55:21;6.43;;;2.17;;
61017;SDS011;48171;51.550;5.434;2022-10-16T14:57:49;8.75;;;2.30;;
61017;SDS011;48171;51.550;5.434;2022-10-16T15:00:16;10.95;;;2.60;;
61017;SDS011;48171;51.550;5.434;2022-10-16T15:02:44;6.57;;;2.17;;
61017;SDS011;48171;51.550;5.434;2022-10-16T15:05:15;7.28;;;2.05;;
61017;SDS011;48171;51.550;5.434;2022-10-16T15:07:42;10.45;;;2.33;;
61017;SDS011;48171;51.550;5.434;2022-10-16T15:10:08;7.63;;;2.15;;
61017;SDS011;48171;51.550;5.434;2022-10-16T15:12:33;9.82;;;2.45;;
61017;SDS011;48171;51.550;5.434;2022-10-16T15:14:59;4.72;;;2.13;;
61017;SDS011;48171;51.550;5.434;2022-10-16T15:17:24;7.43;;;2.10;;
61017;SDS011;48171;51.550;5.434;2022-10-16T15:19:49;10.68;;;2.20;;
61017;SDS011;48171;51.550;5.434;2022-10-16T15:22:16;11.27;;;2.38;;
61017;SDS011;48171;51.550;5.434;2022-10-16T15:24:41;11.30;;;2.50;;
61017;SDS011;48171;51.550;5.434;2022-10-16T15:27:07;5.00;;;2.28;;
61017;SDS011;48171;51.550;5.434;2022-10-16T15:29:32;7.38;;;2.15;;
61017;SDS011;48171;51.550;5.434;2022-10-16T15:31:57;10.20;;;2.72;;
61017;SDS011;48171;51.550;5.434;2022-10-16T15:34:23;5.57;;;2.22;;
61017;SDS011;48171;51.550;5.434;2022-10-16T15:36:48;7.57;;;2.22;;
61017;SDS011;48171;51.550;5.434;2022-10-16T15:39:14;5.10;;;2.25;;
61017;SDS011;48171;51.550;5.434;2022-10-16T15:41:41;6.25;;;2.30;;
61017;SDS011;48171;51.550;5.434;2022-10-16T15:44:07;9.52;;;2.70;;
61017;SDS011;48171;51.550;5.434;2022-10-16T15:46:33;8.25;;;2.65;;
61017;SDS011;48171;51.550;5.434;2022-10-16T15:48:59;9.95;;;2.17;;
61017;SDS011;48171;51.550;5.434;2022-10-16T15:51:25;7.80;;;2.13;;
61017;SDS011;48171;51.550;5.434;2022-10-16T15:53:54;7.05;;;2.55;;
61017;SDS011;48171;51.550;5.434;2022-10-16T15:56:21;7.43;;;2.45;;
61017;SDS011;48171;51.550;5.434;2022-10-16T15:58:47;6.88;;;2.17;;
61017;SDS011;48171;51.550;5.434;2022-10-16T16:01:12;4.13;;;2.10;;
61017;SDS011;48171;51.550;5.434;2022-10-16T16:03:38;9.48;;;2.60;;
61017;SDS011;48171;51.550;5.434;2022-10-16T16:06:07;6.97;;;2.47;;
61017;SDS011;48171;51.550;5.434;2022-10-16T16:08:35;6.75;;;2.42;;
61017;SDS011;48171;51.550;5.434;2022-10-16T16:11:02;5.75;;;2.70;;
61017;SDS011;48171;51.550;5.434;2022-10-16T16:13:31;8.80;;;2.85;;
61017;SDS011;48171;51.550;5.434;2022-10-16T16:15:57;10.65;;;5.07;;
61017;SDS011;48171;51.550;5.434;2022-10-16T16:18:22;10.85;;;4.15;;
61017;SDS011;48171;51.550;5.434;2022-10-16T16:20:49;9.48;;;4.93;;
61017;SDS011;48171;51.550;5.434;2022-10-16T16:23:15;8.60;;;4.55;;
61017;SDS011;48171;51.550;5.434;2022-10-16T16:25:40;11.20;;;4.00;;
61017;SDS011;48171;51.550;5.434;2022-10-16T16:28:05;9.73;;;3.25;;
61017;SDS011;48171;51.550;5.434;2022-10-16T16:30:32;8.32;;;3.17;;
61017;SDS011;48171;51.550;5.434;2022-10-16T16:32:57;8.25;;;3.78;;
61017;SDS011;48171;51.550;5.434;2022-10-16T16:35:22;11.50;;;4.80;;
61017;SDS011;48171;51.550;5.434;2022-10-16T16:37:48;7.60;;;3.85;;
61017;SDS011;48171;51.550;5.434;2022-10-16T16:40:13;7.75;;;3.38;;
61017;SDS011;48171;51.550;5.434;2022-10-16T16:42:38;7.25;;;3.28;;